首页
METAR-TAF:

METAR-TAF

机场 :

塔里哈, 玻利维亚

纬度: 21-33S, 经度: 064-42W, 海拔: 1854米

当前天气观测

该预报发布于1小时和12分钟前的17:00 UTC
风速3节,风向南转南东
温度 29°C
湿度 25%
气压 1018 hPa
能见度10公里或以上

METAR: SLTJ 241700Z 15003KT 9999 NSC 29/07 Q1018

时间: 14:12 (18:12 UTC)

预报

该预报发布于2小时和12分钟前的16:00 UTC
预报有效从24日的 18点(UTC)到 25日的 18点(UTC)
风速5节,风向东南
能见度10公里或以上
短暂存在
从 24日的 19点(UTC)到 24日的 22点(UTC)
风速10节,风向

TAF: SLTJ 241600Z 2418/2518 13005KT 9999 NSC TX30/2419Z TN04/2511Z TEMPO 2419/2422 17010KT

超过4000个机场的气象观测和天气预报(METAR&TAF报告)。

可查询的气象台以黄色和红色小点在地图上表示。

将鼠标移到小点上方,可查看气象台名称。

然后点击查看天气观测和预报。

如需切换地图:点击带黑十字的绿色按钮放大地图;点击带横线的绿色按钮缩小地图;或者点击绿色箭头查看邻近地区的地图。


METAR-TAF: